Napoli Jet — IQTJ — position and weather

sailwx.info

Track history (hours):
 
Tides and Currents Weather Stations Pressure Air Temp Water Temp Dewpoint Dewpoint Depression Visibility Wind Speed Wind Dir Waves Ship Positions

Napoli Jet

Last reported at 2015-Jul-31 08:34 UTC. Time now 2015-Jul-31 09:24 UTC.
Position N 40°36' E 014°16'.

Length 41 m; draft 1.3 m.

Type: Ship. MMSI: 247051400.

Date/timePositionNaut miles runAvg speedWind from/ knotsBaromVisibWave heightAir tempDewpointWater temp
2015-Jul-31 08:34N 40°36' E 014°16'13 0.8
2015-Jul-30 16:33N 40°49' E 014°17'1615.8
2015-Jul-30 15:32N 40°33' E 014°14'1712.2
2015-Jul-30 14:10N 40°50' E 014°17'1524.0
2015-Jul-30 13:33N 40°35' E 014°15'5 5.4
2015-Jul-30 12:33N 40°38' E 014°21'7 6.8
2015-Jul-30 11:31N 40°33' E 014°14'5 4.9
2015-Jul-30 10:33N 40°38' E 014°16'12 6.1
2015-Jul-30 08:33N 40°50' E 014°16'0 0.0
2015-Jul-30 07:19N 40°50' E 014°16'2 0.1
2015-Jul-29 16:33N 40°48' E 014°17'1515.2
2015-Jul-29 15:33N 40°33' E 014°14'1712.0
2015-Jul-29 14:10N 40°50' E 014°17'1524.4
2015-Jul-29 13:33N 40°35' E 014°15'2 1.8
2015-Jul-29 12:33N 40°33' E 014°14'1 0.6
2015-Jul-29 11:34N 40°34' E 014°15'1613.5
2015-Jul-29 10:21N 40°50' E 014°16'1719.8
2015-Jul-29 09:30N 40°33' E 014°14'0 0.0
2015-Jul-29 08:33N 40°33' E 014°14'17 0.4
2015-Jul-27 11:12N 40°50' E 014°17'0 0.2
2015-Jul-27 10:19N 40°50' E 014°17'1721.2
2015-Jul-27 09:32N 40°33' E 014°14'0 0.0
2015-Jul-27 08:33N 40°33' E 014°14'0 0.0
2015-Jul-26 20:33N 40°33' E 014°14'0 0.0
2015-Jul-26 19:33N 40°33' E 014°14'6 6.4
2015-Jul-26 18:34N 40°40' E 014°17'1110.0
2015-Jul-26 17:30N 40°50' E 014°16'1717.6
2015-Jul-26 16:33N 40°33' E 014°14'1713.2
2015-Jul-26 15:18N 40°50' E 014°17'1722.2
2015-Jul-26 14:33N 40°33' E 014°14'0 0.0
2015-Jul-26 13:32N 40°33' E 014°14'0 0.0
2015-Jul-26 12:33N 40°33' E 014°14'0 0.1
2015-Jul-26 11:33N 40°33' E 014°15'1714.0
2015-Jul-26 10:22N 40°50' E 014°16'1720.6
2015-Jul-26 09:33N 40°33' E 014°14'0 0.0
2015-Jul-26 08:33N 40°33' E 014°14'16 5.3
2015-Jul-26 05:32N 40°49' E 014°17'1616.2
2015-Jul-26 04:33N 40°33' E 014°14'6 0.6
2015-Jul-25 18:33N 40°39' E 014°17'8 4.1
2015-Jul-25 16:31N 40°48' E 014°17'1415.1
2015-Jul-25 15:33N 40°33' E 014°14'1712.0
2015-Jul-25 14:10N 40°50' E 014°17'1524.4
2015-Jul-25 13:33N 40°35' E 014°15'2 1.7
2015-Jul-25 12:31N 40°33' E 014°14'2 2.5
2015-Jul-25 11:34N 40°35' E 014°17'5 4.8
2015-Jul-25 10:29N 40°38' E 014°23'8 8.3
2015-Jul-25 09:33N 40°33' E 014°14'16 3.9
2015-Jul-25 05:33N 40°49' E 014°17'1615.6
2015-Jul-25 04:33N 40°33' E 014°14'0 0.0
2015-Jul-24 19:07N 40°33' E 014°14'1017.6
2015-Jul-24 18:33N 40°43' E 014°16'5 2.3
2015-Jul-24 16:33N 40°48' E 014°17'1413.3
2015-Jul-24 15:28N 40°33' E 014°14'1712.8
2015-Jul-24 14:10N 40°50' E 014°17'1523.7
2015-Jul-24 13:33N 40°35' E 014°15'6 5.5
2015-Jul-24 12:29N 40°38' E 014°23'8 8.2
2015-Jul-24 11:33N 40°33' E 014°14'0 0.0
2015-Jul-24 10:33N 40°33' E 014°14'0 0.0
2015-Jul-24 09:33N 40°33' E 014°14'5 5.5
2015-Jul-24 08:33N 40°39' E 014°16'11 3.8
2015-Jul-24 05:33N 40°50' E 014°17'1716.7
2015-Jul-24 04:34N 40°33' E 014°14'0 0.0
2015-Jul-23 15:33N 40°33' E 014°14'1712.0
2015-Jul-23 14:10N 40°50' E 014°17'1524.4
2015-Jul-23 13:33N 40°35' E 014°15'6 6.0
2015-Jul-23 12:33N 40°38' E 014°22'8 7.7
2015-Jul-23 11:34N 40°33' E 014°14'1 1.4
2015-Jul-23 10:33N 40°35' E 014°15'5 0.1
2015-Jul-21 18:33N 40°39' E 014°17'9 4.6
2015-Jul-21 16:33N 40°48' E 014°17'1515.2
2015-Jul-21 15:33N 40°33' E 014°14'1611.9
2015-Jul-21 14:11N 40°49' E 014°17'1523.9
2015-Jul-21 13:33N 40°34' E 014°15'1 1.2
2015-Jul-21 12:33N 40°33' E 014°14'0 0.0
2015-Jul-21 11:33N 40°33' E 014°14'1713.1
2015-Jul-21 10:17N 40°50' E 014°16'1721.3
2015-Jul-21 09:31N 40°33' E 014°14'  
Track history (hours):
 
Tides and Currents Weather Stations Pressure Air Temp Water Temp Dewpoint Dewpoint Depression Visibility Wind Speed Wind Dir Waves Ship Positions

Napoli Jet

Last reported at 2015-Jul-31 08:34 UTC. Time now 2015-Jul-31 09:24 UTC.
Position N 40°36' E 014°16'.

Length 41 m; draft 1.3 m.

Type: Ship. MMSI: 247051400.

Date/timePositionNaut miles runAvg speedWind from/ knotsBaromVisibWave heightAir tempDewpointWater temp
2015-Jul-31 08:34N 40°36' E 014°16'13 0.8
2015-Jul-30 16:33N 40°49' E 014°17'1615.8
2015-Jul-30 15:32N 40°33' E 014°14'1712.2
2015-Jul-30 14:10N 40°50' E 014°17'1524.0
2015-Jul-30 13:33N 40°35' E 014°15'5 5.4
2015-Jul-30 12:33N 40°38' E 014°21'7 6.8
2015-Jul-30 11:31N 40°33' E 014°14'5 4.9
2015-Jul-30 10:33N 40°38' E 014°16'12 6.1
2015-Jul-30 08:33N 40°50' E 014°16'0 0.0
2015-Jul-30 07:19N 40°50' E 014°16'2 0.1
2015-Jul-29 16:33N 40°48' E 014°17'1515.2
2015-Jul-29 15:33N 40°33' E 014°14'1712.0
2015-Jul-29 14:10N 40°50' E 014°17'1524.4
2015-Jul-29 13:33N 40°35' E 014°15'2 1.8
2015-Jul-29 12:33N 40°33' E 014°14'1 0.6
2015-Jul-29 11:34N 40°34' E 014°15'1613.5
2015-Jul-29 10:21N 40°50' E 014°16'1719.8
2015-Jul-29 09:30N 40°33' E 014°14'0 0.0
2015-Jul-29 08:33N 40°33' E 014°14'17 0.4
2015-Jul-27 11:12N 40°50' E 014°17'0 0.2
2015-Jul-27 10:19N 40°50' E 014°17'1721.2
2015-Jul-27 09:32N 40°33' E 014°14'0 0.0
2015-Jul-27 08:33N 40°33' E 014°14'0 0.0
2015-Jul-26 20:33N 40°33' E 014°14'0 0.0
2015-Jul-26 19:33N 40°33' E 014°14'6 6.4
2015-Jul-26 18:34N 40°40' E 014°17'1110.0
2015-Jul-26 17:30N 40°50' E 014°16'1717.6
2015-Jul-26 16:33N 40°33' E 014°14'1713.2
2015-Jul-26 15:18N 40°50' E 014°17'1722.2
2015-Jul-26 14:33N 40°33' E 014°14'0 0.0
2015-Jul-26 13:32N 40°33' E 014°14'0 0.0
2015-Jul-26 12:33N 40°33' E 014°14'0 0.1
2015-Jul-26 11:33N 40°33' E 014°15'1714.0
2015-Jul-26 10:22N 40°50' E 014°16'1720.6
2015-Jul-26 09:33N 40°33' E 014°14'0 0.0
2015-Jul-26 08:33N 40°33' E 014°14'16 5.3
2015-Jul-26 05:32N 40°49' E 014°17'1616.2
2015-Jul-26 04:33N 40°33' E 014°14'6 0.6
2015-Jul-25 18:33N 40°39' E 014°17'8 4.1
2015-Jul-25 16:31N 40°48' E 014°17'1415.1
2015-Jul-25 15:33N 40°33' E 014°14'1712.0
2015-Jul-25 14:10N 40°50' E 014°17'1524.4
2015-Jul-25 13:33N 40°35' E 014°15'2 1.7
2015-Jul-25 12:31N 40°33' E 014°14'2 2.5
2015-Jul-25 11:34N 40°35' E 014°17'5 4.8
2015-Jul-25 10:29N 40°38' E 014°23'8 8.3
2015-Jul-25 09:33N 40°33' E 014°14'16 3.9
2015-Jul-25 05:33N 40°49' E 014°17'1615.6
2015-Jul-25 04:33N 40°33' E 014°14'0 0.0
2015-Jul-24 19:07N 40°33' E 014°14'1017.6
2015-Jul-24 18:33N 40°43' E 014°16'5 2.3
2015-Jul-24 16:33N 40°48' E 014°17'1413.3
2015-Jul-24 15:28N 40°33' E 014°14'1712.8
2015-Jul-24 14:10N 40°50' E 014°17'1523.7
2015-Jul-24 13:33N 40°35' E 014°15'6 5.5
2015-Jul-24 12:29N 40°38' E 014°23'8 8.2
2015-Jul-24 11:33N 40°33' E 014°14'0 0.0
2015-Jul-24 10:33N 40°33' E 014°14'0 0.0
2015-Jul-24 09:33N 40°33' E 014°14'5 5.5
2015-Jul-24 08:33N 40°39' E 014°16'11 3.8
2015-Jul-24 05:33N 40°50' E 014°17'1716.7
2015-Jul-24 04:34N 40°33' E 014°14'0 0.0
2015-Jul-23 15:33N 40°33' E 014°14'1712.0
2015-Jul-23 14:10N 40°50' E 014°17'1524.4
2015-Jul-23 13:33N 40°35' E 014°15'6 6.0
2015-Jul-23 12:33N 40°38' E 014°22'8 7.7
2015-Jul-23 11:34N 40°33' E 014°14'1 1.4
2015-Jul-23 10:33N 40°35' E 014°15'5 0.1
2015-Jul-21 18:33N 40°39' E 014°17'9 4.6
2015-Jul-21 16:33N 40°48' E 014°17'1515.2
2015-Jul-21 15:33N 40°33' E 014°14'1611.9
2015-Jul-21 14:11N 40°49' E 014°17'1523.9
2015-Jul-21 13:33N 40°34' E 014°15'1 1.2
2015-Jul-21 12:33N 40°33' E 014°14'0 0.0
2015-Jul-21 11:33N 40°33' E 014°14'1713.1
2015-Jul-21 10:17N 40°50' E 014°16'1721.3
2015-Jul-21 09:31N 40°33' E 014°14'  

Dump ship's entire track history